sensor_id;sensor_type;location;lat;lon;timestamp;P1;durP1;ratioP1;P2;durP2;ratioP2
7047;SDS011;3565;53.254;10.352;2022-09-09T00:01:08;21.80;;;16.07;;
7047;SDS011;3565;53.254;10.352;2022-09-09T00:03:43;24.20;;;17.00;;
7047;SDS011;3565;53.254;10.352;2022-09-09T00:06:16;21.80;;;15.47;;
7047;SDS011;3565;53.254;10.352;2022-09-09T00:09:10;35.23;;;17.20;;
7047;SDS011;3565;53.254;10.352;2022-09-09T00:11:41;20.37;;;15.70;;
7047;SDS011;3565;53.254;10.352;2022-09-09T00:14:14;21.93;;;16.40;;
7047;SDS011;3565;53.254;10.352;2022-09-09T00:17:04;22.00;;;16.47;;
7047;SDS011;3565;53.254;10.352;2022-09-09T00:19:37;22.20;;;15.83;;
7047;SDS011;3565;53.254;10.352;2022-09-09T00:22:14;20.07;;;15.30;;
7047;SDS011;3565;53.254;10.352;2022-09-09T00:24:45;22.47;;;16.53;;
7047;SDS011;3565;53.254;10.352;2022-09-09T00:27:25;24.37;;;17.10;;
7047;SDS011;3565;53.254;10.352;2022-09-09T00:29:57;22.40;;;16.57;;
7047;SDS011;3565;53.254;10.352;2022-09-09T00:32:29;24.60;;;17.43;;
7047;SDS011;3565;53.254;10.352;2022-09-09T00:35:00;21.10;;;16.03;;
7047;SDS011;3565;53.254;10.352;2022-09-09T00:37:31;23.70;;;16.40;;
7047;SDS011;3565;53.254;10.352;2022-09-09T00:40:05;20.13;;;15.27;;
7047;SDS011;3565;53.254;10.352;2022-09-09T00:42:37;24.40;;;17.00;;
7047;SDS011;3565;53.254;10.352;2022-09-09T00:45:12;22.97;;;16.70;;
7047;SDS011;3565;53.254;10.352;2022-09-09T00:47:47;22.37;;;16.60;;
7047;SDS011;3565;53.254;10.352;2022-09-09T00:50:25;22.37;;;16.63;;
7047;SDS011;3565;53.254;10.352;2022-09-09T00:53:03;23.00;;;16.10;;
7047;SDS011;3565;53.254;10.352;2022-09-09T00:55:41;24.43;;;17.00;;
7047;SDS011;3565;53.254;10.352;2022-09-09T00:58:14;21.43;;;15.73;;
7047;SDS011;3565;53.254;10.352;2022-09-09T01:00:44;20.97;;;15.47;;
7047;SDS011;3565;53.254;10.352;2022-09-09T01:03:19;24.60;;;17.17;;
7047;SDS011;3565;53.254;10.352;2022-09-09T01:05:54;21.77;;;15.97;;
7047;SDS011;3565;53.254;10.352;2022-09-09T01:11:21;22.50;;;15.60;;
7047;SDS011;3565;53.254;10.352;2022-09-09T01:13:53;22.73;;;16.40;;
7047;SDS011;3565;53.254;10.352;2022-09-09T01:16:26;23.70;;;16.13;;
7047;SDS011;3565;53.254;10.352;2022-09-09T01:18:56;21.83;;;15.57;;
7047;SDS011;3565;53.254;10.352;2022-09-09T01:21:32;22.00;;;15.00;;
7047;SDS011;3565;53.254;10.352;2022-09-09T01:24:12;21.83;;;16.00;;
7047;SDS011;3565;53.254;10.352;2022-09-09T01:26:46;24.70;;;16.87;;
7047;SDS011;3565;53.254;10.352;2022-09-09T01:29:17;21.13;;;15.37;;
7047;SDS011;3565;53.254;10.352;2022-09-09T01:31:53;26.30;;;17.03;;
7047;SDS011;3565;53.254;10.352;2022-09-09T01:34:24;23.03;;;15.87;;
7047;SDS011;3565;53.254;10.352;2022-09-09T01:36:57;22.27;;;16.20;;
7047;SDS011;3565;53.254;10.352;2022-09-09T01:39:28;22.33;;;16.43;;
7047;SDS011;3565;53.254;10.352;2022-09-09T01:41:58;23.03;;;15.00;;
7047;SDS011;3565;53.254;10.352;2022-09-09T01:44:27;23.63;;;16.10;;
7047;SDS011;3565;53.254;10.352;2022-09-09T01:46:57;23.07;;;15.90;;
7047;SDS011;3565;53.254;10.352;2022-09-09T01:49:26;23.47;;;16.17;;
7047;SDS011;3565;53.254;10.352;2022-09-09T01:51:55;21.40;;;15.10;;
7047;SDS011;3565;53.254;10.352;2022-09-09T01:54:26;20.33;;;14.80;;
7047;SDS011;3565;53.254;10.352;2022-09-09T01:57:14;20.60;;;14.07;;
7047;SDS011;3565;53.254;10.352;2022-09-09T01:59:47;24.00;;;16.67;;
7047;SDS011;3565;53.254;10.352;2022-09-09T02:02:19;24.20;;;15.73;;
7047;SDS011;3565;53.254;10.352;2022-09-09T02:04:54;19.87;;;14.60;;
7047;SDS011;3565;53.254;10.352;2022-09-09T02:07:33;19.77;;;14.30;;
7047;SDS011;3565;53.254;10.352;2022-09-09T02:10:15;24.17;;;16.37;;
7047;SDS011;3565;53.254;10.352;2022-09-09T02:12:43;19.17;;;13.90;;
7047;SDS011;3565;53.254;10.352;2022-09-09T02:15:16;19.90;;;14.37;;
7047;SDS011;3565;53.254;10.352;2022-09-09T02:17:49;21.07;;;15.00;;
7047;SDS011;3565;53.254;10.352;2022-09-09T02:20:20;23.10;;;16.20;;
7047;SDS011;3565;53.254;10.352;2022-09-09T02:22:52;20.20;;;14.90;;
7047;SDS011;3565;53.254;10.352;2022-09-09T02:25:24;20.53;;;15.10;;
7047;SDS011;3565;53.254;10.352;2022-09-09T02:27:55;20.63;;;14.83;;
7047;SDS011;3565;53.254;10.352;2022-09-09T02:30:25;19.43;;;14.43;;
7047;SDS011;3565;53.254;10.352;2022-09-09T02:32:57;19.07;;;13.97;;
7047;SDS011;3565;53.254;10.352;2022-09-09T02:35:26;19.03;;;13.37;;
7047;SDS011;3565;53.254;10.352;2022-09-09T02:37:56;19.90;;;14.10;;
7047;SDS011;3565;53.254;10.352;2022-09-09T02:40:30;16.33;;;12.37;;
7047;SDS011;3565;53.254;10.352;2022-09-09T02:42:58;16.97;;;12.53;;
7047;SDS011;3565;53.254;10.352;2022-09-09T02:45:29;16.10;;;11.90;;
7047;SDS011;3565;53.254;10.352;2022-09-09T02:47:59;18.77;;;13.10;;
7047;SDS011;3565;53.254;10.352;2022-09-09T02:50:28;16.60;;;12.53;;
7047;SDS011;3565;53.254;10.352;2022-09-09T02:53:01;17.57;;;12.67;;
7047;SDS011;3565;53.254;10.352;2022-09-09T02:55:38;21.27;;;14.43;;
7047;SDS011;3565;53.254;10.352;2022-09-09T02:58:09;20.37;;;14.67;;
7047;SDS011;3565;53.254;10.352;2022-09-09T03:00:44;19.90;;;14.70;;
7047;SDS011;3565;53.254;10.352;2022-09-09T03:03:13;21.47;;;14.67;;
7047;SDS011;3565;53.254;10.352;2022-09-09T03:05:43;20.67;;;13.67;;
7047;SDS011;3565;53.254;10.352;2022-09-09T03:08:12;19.00;;;14.57;;
7047;SDS011;3565;53.254;10.352;2022-09-09T03:10:41;19.33;;;14.47;;
7047;SDS011;3565;53.254;10.352;2022-09-09T03:13:09;19.20;;;14.37;;
7047;SDS011;3565;53.254;10.352;2022-09-09T03:15:39;18.47;;;13.80;;
7047;SDS011;3565;53.254;10.352;2022-09-09T03:18:07;18.70;;;14.43;;
7047;SDS011;3565;53.254;10.352;2022-09-09T03:20:35;17.20;;;13.57;;
7047;SDS011;3565;53.254;10.352;2022-09-09T03:23:05;21.50;;;13.80;;
7047;SDS011;3565;53.254;10.352;2022-09-09T03:25:33;16.27;;;12.63;;
7047;SDS011;3565;53.254;10.352;2022-09-09T03:28:03;19.47;;;13.43;;
7047;SDS011;3565;53.254;10.352;2022-09-09T03:30:31;17.60;;;13.77;;
7047;SDS011;3565;53.254;10.352;2022-09-09T03:32:59;17.17;;;12.03;;
7047;SDS011;3565;53.254;10.352;2022-09-09T03:35:27;15.17;;;11.00;;
7047;SDS011;3565;53.254;10.352;2022-09-09T03:37:56;16.50;;;12.37;;
7047;SDS011;3565;53.254;10.352;2022-09-09T03:40:27;18.43;;;13.70;;
7047;SDS011;3565;53.254;10.352;2022-09-09T03:42:57;18.77;;;14.27;;
7047;SDS011;3565;53.254;10.352;2022-09-09T03:45:26;20.23;;;13.83;;
7047;SDS011;3565;53.254;10.352;2022-09-09T03:47:55;16.40;;;12.50;;
7047;SDS011;3565;53.254;10.352;2022-09-09T03:50:24;18.13;;;12.63;;
7047;SDS011;3565;53.254;10.352;2022-09-09T03:52:54;18.37;;;13.33;;
7047;SDS011;3565;53.254;10.352;2022-09-09T03:55:23;15.87;;;12.33;;
7047;SDS011;3565;53.254;10.352;2022-09-09T03:57:51;18.30;;;12.90;;
7047;SDS011;3565;53.254;10.352;2022-09-09T04:00:19;15.40;;;11.57;;
7047;SDS011;3565;53.254;10.352;2022-09-09T04:02:48;16.47;;;12.67;;
7047;SDS011;3565;53.254;10.352;2022-09-09T04:05:16;18.23;;;12.73;;
7047;SDS011;3565;53.254;10.352;2022-09-09T04:07:45;20.40;;;13.80;;
7047;SDS011;3565;53.254;10.352;2022-09-09T04:10:15;13.73;;;11.80;;
7047;SDS011;3565;53.254;10.352;2022-09-09T04:12:43;16.50;;;12.60;;
7047;SDS011;3565;53.254;10.352;2022-09-09T04:15:11;14.13;;;11.27;;
7047;SDS011;3565;53.254;10.352;2022-09-09T04:17:40;17.37;;;12.17;;
7047;SDS011;3565;53.254;10.352;2022-09-09T04:20:09;15.47;;;11.47;;
7047;SDS011;3565;53.254;10.352;2022-09-09T04:22:38;17.77;;;12.67;;
7047;SDS011;3565;53.254;10.352;2022-09-09T04:25:08;15.83;;;11.67;;
7047;SDS011;3565;53.254;10.352;2022-09-09T04:27:36;15.60;;;11.97;;
7047;SDS011;3565;53.254;10.352;2022-09-09T04:30:05;17.20;;;11.97;;
7047;SDS011;3565;53.254;10.352;2022-09-09T04:32:36;15.17;;;10.60;;
7047;SDS011;3565;53.254;10.352;2022-09-09T04:35:04;15.03;;;11.37;;
7047;SDS011;3565;53.254;10.352;2022-09-09T04:37:34;13.33;;;10.43;;
7047;SDS011;3565;53.254;10.352;2022-09-09T04:40:04;13.33;;;11.13;;
7047;SDS011;3565;53.254;10.352;2022-09-09T04:42:36;13.70;;;10.97;;
7047;SDS011;3565;53.254;10.352;2022-09-09T04:45:06;12.53;;;9.87;;
7047;SDS011;3565;53.254;10.352;2022-09-09T04:47:38;16.10;;;11.50;;
7047;SDS011;3565;53.254;10.352;2022-09-09T04:50:06;13.03;;;10.87;;
7047;SDS011;3565;53.254;10.352;2022-09-09T04:52:36;12.77;;;10.17;;
7047;SDS011;3565;53.254;10.352;2022-09-09T04:55:07;15.03;;;10.27;;
7047;SDS011;3565;53.254;10.352;2022-09-09T04:57:35;12.97;;;9.97;;
7047;SDS011;3565;53.254;10.352;2022-09-09T05:00:06;13.30;;;9.67;;
7047;SDS011;3565;53.254;10.352;2022-09-09T05:02:39;10.57;;;9.23;;
7047;SDS011;3565;53.254;10.352;2022-09-09T05:05:08;11.30;;;9.57;;
7047;SDS011;3565;53.254;10.352;2022-09-09T05:07:38;14.33;;;9.87;;
7047;SDS011;3565;53.254;10.352;2022-09-09T05:10:08;11.90;;;9.20;;
7047;SDS011;3565;53.254;10.352;2022-09-09T05:12:37;14.27;;;10.13;;
7047;SDS011;3565;53.254;10.352;2022-09-09T05:15:08;11.20;;;9.40;;
7047;SDS011;3565;53.254;10.352;2022-09-09T05:17:38;13.40;;;9.20;;
7047;SDS011;3565;53.254;10.352;2022-09-09T05:20:08;9.90;;;8.70;;
7047;SDS011;3565;53.254;10.352;2022-09-09T05:22:38;10.37;;;8.97;;
7047;SDS011;3565;53.254;10.352;2022-09-09T05:25:08;9.57;;;8.00;;
7047;SDS011;3565;53.254;10.352;2022-09-09T05:27:37;11.80;;;8.83;;
7047;SDS011;3565;53.254;10.352;2022-09-09T05:30:07;10.03;;;7.97;;
7047;SDS011;3565;53.254;10.352;2022-09-09T05:32:37;9.30;;;8.00;;
7047;SDS011;3565;53.254;10.352;2022-09-09T05:35:07;9.97;;;8.37;;
7047;SDS011;3565;53.254;10.352;2022-09-09T05:37:36;10.33;;;8.83;;
7047;SDS011;3565;53.254;10.352;2022-09-09T05:40:07;8.60;;;7.43;;
7047;SDS011;3565;53.254;10.352;2022-09-09T05:42:37;9.67;;;7.80;;
7047;SDS011;3565;53.254;10.352;2022-09-09T05:45:07;7.90;;;6.87;;
7047;SDS011;3565;53.254;10.352;2022-09-09T05:47:37;6.63;;;6.03;;
7047;SDS011;3565;53.254;10.352;2022-09-09T05:50:07;7.13;;;6.43;;
7047;SDS011;3565;53.254;10.352;2022-09-09T05:52:36;7.33;;;5.87;;
7047;SDS011;3565;53.254;10.352;2022-09-09T05:55:07;10.77;;;5.70;;
7047;SDS011;3565;53.254;10.352;2022-09-09T05:57:37;5.60;;;5.03;;
7047;SDS011;3565;53.254;10.352;2022-09-09T06:00:11;6.53;;;5.13;;
7047;SDS011;3565;53.254;10.352;2022-09-09T06:02:41;5.27;;;4.80;;
7047;SDS011;3565;53.254;10.352;2022-09-09T06:05:11;8.47;;;5.30;;
7047;SDS011;3565;53.254;10.352;2022-09-09T06:07:41;8.20;;;5.10;;
7047;SDS011;3565;53.254;10.352;2022-09-09T06:10:11;7.23;;;4.20;;
7047;SDS011;3565;53.254;10.352;2022-09-09T06:12:41;7.37;;;5.13;;
7047;SDS011;3565;53.254;10.352;2022-09-09T06:15:10;5.00;;;4.10;;
7047;SDS011;3565;53.254;10.352;2022-09-09T06:17:39;5.47;;;4.60;;
7047;SDS011;3565;53.254;10.352;2022-09-09T06:20:09;5.13;;;4.17;;
7047;SDS011;3565;53.254;10.352;2022-09-09T06:22:40;5.20;;;4.63;;
7047;SDS011;3565;53.254;10.352;2022-09-09T06:25:10;4.50;;;4.10;;
7047;SDS011;3565;53.254;10.352;2022-09-09T06:27:39;6.30;;;4.43;;
7047;SDS011;3565;53.254;10.352;2022-09-09T06:30:10;4.43;;;3.70;;
7047;SDS011;3565;53.254;10.352;2022-09-09T06:32:40;4.03;;;3.53;;
7047;SDS011;3565;53.254;10.352;2022-09-09T06:35:09;5.50;;;4.03;;
7047;SDS011;3565;53.254;10.352;2022-09-09T06:37:40;6.43;;;3.80;;
7047;SDS011;3565;53.254;10.352;2022-09-09T06:40:16;8.53;;;4.40;;
7047;SDS011;3565;53.254;10.352;2022-09-09T06:42:46;5.33;;;4.37;;
7047;SDS011;3565;53.254;10.352;2022-09-09T06:45:15;3.93;;;3.53;;
7047;SDS011;3565;53.254;10.352;2022-09-09T06:47:46;7.67;;;3.97;;
7047;SDS011;3565;53.254;10.352;2022-09-09T06:50:15;6.03;;;3.73;;
7047;SDS011;3565;53.254;10.352;2022-09-09T06:52:46;5.03;;;4.00;;
7047;SDS011;3565;53.254;10.352;2022-09-09T06:55:15;4.00;;;3.43;;
7047;SDS011;3565;53.254;10.352;2022-09-09T06:57:45;3.77;;;3.20;;
7047;SDS011;3565;53.254;10.352;2022-09-09T07:00:15;3.90;;;2.80;;
7047;SDS011;3565;53.254;10.352;2022-09-09T07:02:45;3.87;;;3.03;;
7047;SDS011;3565;53.254;10.352;2022-09-09T07:05:15;4.90;;;3.57;;
7047;SDS011;3565;53.254;10.352;2022-09-09T07:07:44;4.13;;;2.87;;
7047;SDS011;3565;53.254;10.352;2022-09-09T07:10:14;3.83;;;2.73;;
7047;SDS011;3565;53.254;10.352;2022-09-09T07:12:43;3.50;;;3.20;;
7047;SDS011;3565;53.254;10.352;2022-09-09T07:15:14;3.70;;;3.30;;
7047;SDS011;3565;53.254;10.352;2022-09-09T07:17:45;3.17;;;2.80;;
7047;SDS011;3565;53.254;10.352;2022-09-09T07:20:31;3.23;;;2.50;;
7047;SDS011;3565;53.254;10.352;2022-09-09T07:23:00;4.23;;;2.60;;
7047;SDS011;3565;53.254;10.352;2022-09-09T07:25:29;5.07;;;2.70;;
7047;SDS011;3565;53.254;10.352;2022-09-09T07:27:58;3.87;;;2.40;;
7047;SDS011;3565;53.254;10.352;2022-09-09T07:30:31;2.43;;;2.23;;
7047;SDS011;3565;53.254;10.352;2022-09-09T07:33:00;3.67;;;2.33;;
7047;SDS011;3565;53.254;10.352;2022-09-09T07:35:30;5.13;;;2.30;;
7047;SDS011;3565;53.254;10.352;2022-09-09T07:38:00;3.70;;;2.40;;
7047;SDS011;3565;53.254;10.352;2022-09-09T07:40:32;2.80;;;2.50;;
7047;SDS011;3565;53.254;10.352;2022-09-09T07:43:02;4.50;;;2.50;;
7047;SDS011;3565;53.254;10.352;2022-09-09T07:45:33;5.17;;;2.30;;
7047;SDS011;3565;53.254;10.352;2022-09-09T07:48:15;3.07;;;2.30;;
7047;SDS011;3565;53.254;10.352;2022-09-09T07:50:44;2.70;;;2.23;;
7047;SDS011;3565;53.254;10.352;2022-09-09T07:53:15;3.27;;;2.40;;
7047;SDS011;3565;53.254;10.352;2022-09-09T07:55:46;3.60;;;2.30;;
7047;SDS011;3565;53.254;10.352;2022-09-09T07:58:15;2.17;;;1.97;;
7047;SDS011;3565;53.254;10.352;2022-09-09T08:00:44;3.57;;;2.33;;
7047;SDS011;3565;53.254;10.352;2022-09-09T08:03:13;2.87;;;1.93;;
7047;SDS011;3565;53.254;10.352;2022-09-09T08:05:42;3.90;;;2.23;;
7047;SDS011;3565;53.254;10.352;2022-09-09T08:08:12;4.03;;;2.77;;
7047;SDS011;3565;53.254;10.352;2022-09-09T08:10:41;3.80;;;2.57;;
7047;SDS011;3565;53.254;10.352;2022-09-09T08:13:10;3.07;;;2.40;;
7047;SDS011;3565;53.254;10.352;2022-09-09T08:15:40;2.30;;;1.77;;
7047;SDS011;3565;53.254;10.352;2022-09-09T08:18:09;2.17;;;1.97;;
7047;SDS011;3565;53.254;10.352;2022-09-09T08:20:38;4.33;;;1.90;;
7047;SDS011;3565;53.254;10.352;2022-09-09T08:23:08;3.23;;;2.33;;
7047;SDS011;3565;53.254;10.352;2022-09-09T08:25:38;4.63;;;2.27;;
7047;SDS011;3565;53.254;10.352;2022-09-09T08:28:07;2.23;;;1.80;;
7047;SDS011;3565;53.254;10.352;2022-09-09T08:30:36;2.97;;;2.13;;
7047;SDS011;3565;53.254;10.352;2022-09-09T08:33:06;3.80;;;2.00;;
7047;SDS011;3565;53.254;10.352;2022-09-09T08:35:36;2.43;;;1.93;;
7047;SDS011;3565;53.254;10.352;2022-09-09T08:38:05;3.60;;;1.90;;
7047;SDS011;3565;53.254;10.352;2022-09-09T08:40:35;2.20;;;1.70;;
7047;SDS011;3565;53.254;10.352;2022-09-09T08:43:06;3.17;;;2.10;;
7047;SDS011;3565;53.254;10.352;2022-09-09T08:45:37;2.70;;;2.00;;
7047;SDS011;3565;53.254;10.352;2022-09-09T08:48:11;3.67;;;2.27;;
7047;SDS011;3565;53.254;10.352;2022-09-09T08:50:47;3.03;;;2.10;;
7047;SDS011;3565;53.254;10.352;2022-09-09T08:53:19;4.03;;;2.10;;
7047;SDS011;3565;53.254;10.352;2022-09-09T08:55:51;4.90;;;2.20;;
7047;SDS011;3565;53.254;10.352;2022-09-09T08:58:22;5.57;;;2.43;;
7047;SDS011;3565;53.254;10.352;2022-09-09T09:00:57;2.97;;;1.87;;
7047;SDS011;3565;53.254;10.352;2022-09-09T09:03:33;3.30;;;1.90;;
7047;SDS011;3565;53.254;10.352;2022-09-09T09:06:08;4.20;;;2.07;;
7047;SDS011;3565;53.254;10.352;2022-09-09T09:08:42;4.33;;;2.20;;
7047;SDS011;3565;53.254;10.352;2022-09-09T09:11:13;2.57;;;1.90;;
7047;SDS011;3565;53.254;10.352;2022-09-09T09:13:45;2.80;;;1.80;;
7047;SDS011;3565;53.254;10.352;2022-09-09T09:16:19;3.87;;;2.43;;
7047;SDS011;3565;53.254;10.352;2022-09-09T09:21:34;2.87;;;1.80;;
7047;SDS011;3565;53.254;10.352;2022-09-09T09:24:06;3.27;;;2.30;;
7047;SDS011;3565;53.254;10.352;2022-09-09T09:26:41;4.00;;;2.47;;
7047;SDS011;3565;53.254;10.352;2022-09-09T09:29:14;3.53;;;1.90;;
7047;SDS011;3565;53.254;10.352;2022-09-09T09:31:44;5.70;;;2.30;;
7047;SDS011;3565;53.254;10.352;2022-09-09T09:34:16;2.87;;;1.90;;
7047;SDS011;3565;53.254;10.352;2022-09-09T09:36:46;3.33;;;2.10;;
7047;SDS011;3565;53.254;10.352;2022-09-09T09:39:25;4.33;;;2.20;;
7047;SDS011;3565;53.254;10.352;2022-09-09T09:41:55;4.03;;;2.07;;
7047;SDS011;3565;53.254;10.352;2022-09-09T09:44:26;2.67;;;2.30;;
7047;SDS011;3565;53.254;10.352;2022-09-09T09:47:06;3.47;;;2.07;;
7047;SDS011;3565;53.254;10.352;2022-09-09T09:49:36;2.60;;;1.90;;
7047;SDS011;3565;53.254;10.352;2022-09-09T09:52:06;3.37;;;1.90;;
7047;SDS011;3565;53.254;10.352;2022-09-09T09:54:41;4.50;;;2.30;;
7047;SDS011;3565;53.254;10.352;2022-09-09T09:57:11;4.27;;;2.27;;
7047;SDS011;3565;53.254;10.352;2022-09-09T09:59:42;6.13;;;2.10;;
7047;SDS011;3565;53.254;10.352;2022-09-09T10:02:17;3.97;;;2.10;;
7047;SDS011;3565;53.254;10.352;2022-09-09T10:04:59;4.60;;;2.20;;
7047;SDS011;3565;53.254;10.352;2022-09-09T10:07:28;3.60;;;2.27;;
7047;SDS011;3565;53.254;10.352;2022-09-09T10:09:59;3.97;;;2.17;;
7047;SDS011;3565;53.254;10.352;2022-09-09T10:12:37;3.53;;;2.10;;
7047;SDS011;3565;53.254;10.352;2022-09-09T10:15:15;4.50;;;1.80;;
7047;SDS011;3565;53.254;10.352;2022-09-09T10:17:55;2.23;;;2.00;;
7047;SDS011;3565;53.254;10.352;2022-09-09T10:20:31;2.90;;;1.60;;
7047;SDS011;3565;53.254;10.352;2022-09-09T10:23:05;3.00;;;2.00;;
7047;SDS011;3565;53.254;10.352;2022-09-09T10:25:40;2.83;;;1.93;;
7047;SDS011;3565;53.254;10.352;2022-09-09T10:28:24;3.33;;;1.87;;
7047;SDS011;3565;53.254;10.352;2022-09-09T10:31:00;2.33;;;1.90;;
7047;SDS011;3565;53.254;10.352;2022-09-09T10:33:33;2.63;;;1.70;;
7047;SDS011;3565;53.254;10.352;2022-09-09T10:36:21;3.90;;;2.00;;
7047;SDS011;3565;53.254;10.352;2022-09-09T10:38:40;4.53;;;2.00;;
7047;SDS011;3565;53.254;10.352;2022-09-09T10:41:13;2.43;;;1.73;;
7047;SDS011;3565;53.254;10.352;2022-09-09T10:43:48;2.90;;;1.20;;
7047;SDS011;3565;53.254;10.352;2022-09-09T10:46:28;2.40;;;1.53;;
7047;SDS011;3565;53.254;10.352;2022-09-09T10:49:15;1.53;;;1.17;;
7047;SDS011;3565;53.254;10.352;2022-09-09T10:51:48;3.07;;;1.53;;
7047;SDS011;3565;53.254;10.352;2022-09-09T10:54:25;5.28;;;1.70;;
7047;SDS011;3565;53.254;10.352;2022-09-09T10:57:00;2.42;;;1.47;;
7047;SDS011;3565;53.254;10.352;2022-09-09T10:59:33;3.60;;;1.60;;
7047;SDS011;3565;53.254;10.352;2022-09-09T11:02:13;2.47;;;1.50;;
7047;SDS011;3565;53.254;10.352;2022-09-09T11:04:48;3.05;;;1.30;;
7047;SDS011;3565;53.254;10.352;2022-09-09T11:07:27;3.90;;;1.55;;
7047;SDS011;3565;53.254;10.352;2022-09-09T11:09:59;2.73;;;1.50;;
7047;SDS011;3565;53.254;10.352;2022-09-09T11:12:33;2.33;;;1.53;;
7047;SDS011;3565;53.254;10.352;2022-09-09T11:15:17;3.63;;;1.63;;
7047;SDS011;3565;53.254;10.352;2022-09-09T11:17:50;2.17;;;1.50;;
7047;SDS011;3565;53.254;10.352;2022-09-09T11:20:23;2.87;;;1.70;;
7047;SDS011;3565;53.254;10.352;2022-09-09T11:22:59;2.90;;;1.70;;
7047;SDS011;3565;53.254;10.352;2022-09-09T11:25:31;2.33;;;1.50;;
7047;SDS011;3565;53.254;10.352;2022-09-09T11:31:02;2.70;;;1.60;;
7047;SDS011;3565;53.254;10.352;2022-09-09T11:34:06;4.83;;;1.90;;
7047;SDS011;3565;53.254;10.352;2022-09-09T11:39:42;6.23;;;2.40;;
7047;SDS011;3565;53.254;10.352;2022-09-09T11:42:22;3.43;;;2.10;;
7047;SDS011;3565;53.254;10.352;2022-09-09T11:44:55;6.90;;;3.23;;
7047;SDS011;3565;53.254;10.352;2022-09-09T11:47:28;4.33;;;2.60;;
7047;SDS011;3565;53.254;10.352;2022-09-09T11:50:10;5.50;;;2.37;;
7047;SDS011;3565;53.254;10.352;2022-09-09T11:53:03;4.47;;;2.30;;
7047;SDS011;3565;53.254;10.352;2022-09-09T11:55:45;3.47;;;2.17;;
7047;SDS011;3565;53.254;10.352;2022-09-09T11:58:16;3.83;;;2.13;;
7047;SDS011;3565;53.254;10.352;2022-09-09T12:00:48;3.70;;;2.27;;
7047;SDS011;3565;53.254;10.352;2022-09-09T12:03:36;3.50;;;2.10;;
7047;SDS011;3565;53.254;10.352;2022-09-09T12:06:15;3.23;;;2.10;;
7047;SDS011;3565;53.254;10.352;2022-09-09T12:08:50;3.23;;;2.30;;
7047;SDS011;3565;53.254;10.352;2022-09-09T12:11:24;4.30;;;2.60;;
7047;SDS011;3565;53.254;10.352;2022-09-09T12:13:58;2.20;;;2.00;;
7047;SDS011;3565;53.254;10.352;2022-09-09T12:16:29;3.27;;;2.10;;
7047;SDS011;3565;53.254;10.352;2022-09-09T12:19:04;3.67;;;2.23;;
7047;SDS011;3565;53.254;10.352;2022-09-09T12:21:38;3.50;;;2.03;;
7047;SDS011;3565;53.254;10.352;2022-09-09T12:27:01;6.47;;;2.50;;
7047;SDS011;3565;53.254;10.352;2022-09-09T12:29:36;3.37;;;2.20;;
7047;SDS011;3565;53.254;10.352;2022-09-09T12:32:07;4.73;;;2.20;;
7047;SDS011;3565;53.254;10.352;2022-09-09T12:34:40;4.83;;;2.10;;
7047;SDS011;3565;53.254;10.352;2022-09-09T12:37:16;3.13;;;1.63;;
7047;SDS011;3565;53.254;10.352;2022-09-09T12:39:49;3.03;;;2.40;;
7047;SDS011;3565;53.254;10.352;2022-09-09T12:42:21;3.43;;;2.20;;
7047;SDS011;3565;53.254;10.352;2022-09-09T12:44:51;3.50;;;2.10;;
7047;SDS011;3565;53.254;10.352;2022-09-09T12:47:28;3.50;;;2.40;;
7047;SDS011;3565;53.254;10.352;2022-09-09T12:50:03;4.03;;;2.30;;
7047;SDS011;3565;53.254;10.352;2022-09-09T12:52:40;4.43;;;2.43;;
7047;SDS011;3565;53.254;10.352;2022-09-09T12:55:16;4.43;;;2.70;;
7047;SDS011;3565;53.254;10.352;2022-09-09T13:00:30;3.87;;;2.33;;
7047;SDS011;3565;53.254;10.352;2022-09-09T13:03:00;2.60;;;2.00;;
7047;SDS011;3565;53.254;10.352;2022-09-09T13:05:34;4.30;;;2.20;;
7047;SDS011;3565;53.254;10.352;2022-09-09T13:08:19;5.63;;;2.13;;
7047;SDS011;3565;53.254;10.352;2022-09-09T13:10:49;3.20;;;1.87;;
7047;SDS011;3565;53.254;10.352;2022-09-09T13:13:22;2.53;;;1.90;;
7047;SDS011;3565;53.254;10.352;2022-09-09T13:15:53;3.00;;;2.10;;
7047;SDS011;3565;53.254;10.352;2022-09-09T13:18:26;1.80;;;1.50;;
7047;SDS011;3565;53.254;10.352;2022-09-09T13:20:57;2.30;;;1.63;;
7047;SDS011;3565;53.254;10.352;2022-09-09T13:23:27;2.27;;;1.70;;
7047;SDS011;3565;53.254;10.352;2022-09-09T13:26:21;2.53;;;1.70;;
7047;SDS011;3565;53.254;10.352;2022-09-09T13:28:53;2.07;;;1.87;;
7047;SDS011;3565;53.254;10.352;2022-09-09T13:31:24;3.03;;;2.10;;
7047;SDS011;3565;53.254;10.352;2022-09-09T13:33:56;2.47;;;2.10;;
7047;SDS011;3565;53.254;10.352;2022-09-09T13:36:30;4.77;;;2.67;;
7047;SDS011;3565;53.254;10.352;2022-09-09T13:39:03;2.73;;;2.20;;
7047;SDS011;3565;53.254;10.352;2022-09-09T13:41:34;3.70;;;2.20;;
7047;SDS011;3565;53.254;10.352;2022-09-09T13:44:05;3.07;;;2.17;;
7047;SDS011;3565;53.254;10.352;2022-09-09T13:46:36;4.10;;;2.30;;
7047;SDS011;3565;53.254;10.352;2022-09-09T13:49:19;6.53;;;2.70;;
7047;SDS011;3565;53.254;10.352;2022-09-09T13:51:48;4.17;;;2.40;;
7047;SDS011;3565;53.254;10.352;2022-09-09T13:54:27;4.17;;;2.40;;
7047;SDS011;3565;53.254;10.352;2022-09-09T13:56:58;4.07;;;2.70;;
7047;SDS011;3565;53.254;10.352;2022-09-09T13:59:27;3.03;;;2.50;;
7047;SDS011;3565;53.254;10.352;2022-09-09T14:01:56;5.23;;;2.73;;
7047;SDS011;3565;53.254;10.352;2022-09-09T14:04:42;5.10;;;2.60;;
7047;SDS011;3565;53.254;10.352;2022-09-09T14:07:11;3.50;;;1.90;;
7047;SDS011;3565;53.254;10.352;2022-09-09T14:09:41;3.20;;;1.70;;
7047;SDS011;3565;53.254;10.352;2022-09-09T14:12:31;3.30;;;1.60;;
7047;SDS011;3565;53.254;10.352;2022-09-09T14:15:03;3.50;;;1.80;;
7047;SDS011;3565;53.254;10.352;2022-09-09T14:17:37;2.90;;;1.40;;
7047;SDS011;3565;53.254;10.352;2022-09-09T14:22:50;4.67;;;1.60;;
7047;SDS011;3565;53.254;10.352;2022-09-09T14:25:19;4.00;;;1.50;;
7047;SDS011;3565;53.254;10.352;2022-09-09T14:27:48;1.60;;;1.50;;
7047;SDS011;3565;53.254;10.352;2022-09-09T14:30:18;2.10;;;1.40;;
7047;SDS011;3565;53.254;10.352;2022-09-09T14:32:47;2.53;;;1.67;;
7047;SDS011;3565;53.254;10.352;2022-09-09T14:35:16;2.50;;;1.70;;
7047;SDS011;3565;53.254;10.352;2022-09-09T14:37:46;3.80;;;1.97;;
7047;SDS011;3565;53.254;10.352;2022-09-09T14:40:36;3.40;;;1.80;;
7047;SDS011;3565;53.254;10.352;2022-09-09T14:43:09;5.87;;;2.30;;
7047;SDS011;3565;53.254;10.352;2022-09-09T14:45:38;3.67;;;1.80;;
7047;SDS011;3565;53.254;10.352;2022-09-09T14:48:09;3.43;;;1.83;;
7047;SDS011;3565;53.254;10.352;2022-09-09T14:50:38;3.30;;;1.80;;
7047;SDS011;3565;53.254;10.352;2022-09-09T14:53:09;3.97;;;2.00;;
7047;SDS011;3565;53.254;10.352;2022-09-09T14:55:39;2.80;;;1.90;;
7047;SDS011;3565;53.254;10.352;2022-09-09T14:58:08;2.57;;;1.80;;
7047;SDS011;3565;53.254;10.352;2022-09-09T15:00:39;3.30;;;1.70;;
7047;SDS011;3565;53.254;10.352;2022-09-09T15:03:09;4.10;;;2.10;;
7047;SDS011;3565;53.254;10.352;2022-09-09T15:05:38;4.67;;;2.47;;
7047;SDS011;3565;53.254;10.352;2022-09-09T15:08:07;2.50;;;2.00;;
7047;SDS011;3565;53.254;10.352;2022-09-09T15:10:36;3.70;;;1.70;;
7047;SDS011;3565;53.254;10.352;2022-09-09T15:13:06;2.57;;;1.80;;
7047;SDS011;3565;53.254;10.352;2022-09-09T15:15:35;3.47;;;1.70;;
7047;SDS011;3565;53.254;10.352;2022-09-09T15:20:54;2.53;;;1.90;;
7047;SDS011;3565;53.254;10.352;2022-09-09T15:23:24;5.97;;;2.00;;
7047;SDS011;3565;53.254;10.352;2022-09-09T15:25:54;3.43;;;1.80;;
7047;SDS011;3565;53.254;10.352;2022-09-09T15:28:25;2.83;;;1.63;;
7047;SDS011;3565;53.254;10.352;2022-09-09T15:30:54;1.90;;;1.73;;
7047;SDS011;3565;53.254;10.352;2022-09-09T15:33:24;1.70;;;1.60;;
7047;SDS011;3565;53.254;10.352;2022-09-09T15:35:55;1.80;;;1.70;;
7047;SDS011;3565;53.254;10.352;2022-09-09T15:38:24;2.37;;;1.70;;
7047;SDS011;3565;53.254;10.352;2022-09-09T15:40:53;3.10;;;1.93;;
7047;SDS011;3565;53.254;10.352;2022-09-09T15:43:23;2.77;;;1.73;;
7047;SDS011;3565;53.254;10.352;2022-09-09T15:45:53;2.90;;;1.90;;